Aviation Digital Data Service (ADDS)

Output produced by METARs form (1326 UTC 21 August 2019)
found at http://www.aviationweather.gov/metar/data/
 
METAR text: DGAA 211300Z 21015KT 9999 BKN021 BKN024 27/22 Q1014 NOSIG
Conditions at: DGAA (ACCRA/KOTOKA INT, GH) observed 1300 UTC 21 August 2019
Temperature: 27.0°C (81°F)
Dewpoint: 22.0°C (72°F) [RH = 74%]
Pressure (altimeter): 29.94 inches Hg (1014.0 mb)
Winds: from the SSW (210 degrees) at 17 MPH (15 knots; 7.7 m/s)
Visibility: 6 or more miles (10+ km)
Ceiling: 2100 feet AGL
Clouds: broken clouds at 2100 feet AGL
broken clouds at 2400 feet AGL
Weather: no significant weather observed at this time

METAR text: DGAA 211200Z 21014KT 9999 FEW020 BKN024 28/22 Q1015 NOSIG
Conditions at: DGAA (ACCRA/KOTOKA INT, GH) observed 1200 UTC 21 August 2019
Temperature: 28.0°C (82°F)
Dewpoint: 22.0°C (72°F) [RH = 70%]
Pressure (altimeter): 29.97 inches Hg (1015.0 mb)
Winds: from the SSW (210 degrees) at 16 MPH (14 knots; 7.2 m/s)
Visibility: 6 or more miles (10+ km)
Ceiling: 2400 feet AGL
Clouds: few clouds at 2000 feet AGL
broken clouds at 2400 feet AGL
Weather: no significant weather observed at this time

METAR text: DGAA 211100Z 22012KT 9999 FEW020 BKN032 BKN039 28/22 Q1016 NOSIG
Conditions at: DGAA (ACCRA/KOTOKA INT, GH) observed 1100 UTC 21 August 2019
Temperature: 28.0°C (82°F)
Dewpoint: 22.0°C (72°F) [RH = 70%]
Pressure (altimeter): 30.00 inches Hg (1016.0 mb)
Winds: from the SW (220 degrees) at 14 MPH (12 knots; 6.2 m/s)
Visibility: 6 or more miles (10+ km)
Ceiling: 3200 feet AGL
Clouds: few clouds at 2000 feet AGL
broken clouds at 3200 feet AGL
broken clouds at 3900 feet AGL
Weather: no significant weather observed at this time

METAR text: DGAA 211000Z 21014KT 9999 FEW014 BKN025 26/23 Q1016 NOSIG
Conditions at: DGAA (ACCRA/KOTOKA INT, GH) observed 1000 UTC 21 August 2019
Temperature: 26.0°C (79°F)
Dewpoint: 23.0°C (73°F) [RH = 84%]
Pressure (altimeter): 30.00 inches Hg (1016.0 mb)
Winds: from the SSW (210 degrees) at 16 MPH (14 knots; 7.2 m/s)
Visibility: 6 or more miles (10+ km)
Ceiling: 2500 feet AGL
Clouds: few clouds at 1400 feet AGL
broken clouds at 2500 feet AGL
Weather: no significant weather observed at this time

METAR text: DGAA 210900Z 21012KT 9999 FEW012 BKN014 26/23 Q1016 NOSIG
Conditions at: DGAA (ACCRA/KOTOKA INT, GH) observed 0900 UTC 21 August 2019
Temperature: 26.0°C (79°F)
Dewpoint: 23.0°C (73°F) [RH = 84%]
Pressure (altimeter): 30.00 inches Hg (1016.0 mb)
Winds: from the SSW (210 degrees) at 14 MPH (12 knots; 6.2 m/s)
Visibility: 6 or more miles (10+ km)
Ceiling: 1400 feet AGL
Clouds: few clouds at 1200 feet AGL
broken clouds at 1400 feet AGL
Weather: no significant weather observed at this time

METAR text: DGAA 210800Z 22009KT 8000 BKN009 OVC044 25/24 Q1015 NOSIG
Conditions at: DGAA (ACCRA/KOTOKA INT, GH) observed 0800 UTC 21 August 2019
Temperature: 25.0°C (77°F)
Dewpoint: 24.0°C (75°F) [RH = 94%]
Pressure (altimeter): 29.97 inches Hg (1015.0 mb)
Winds: from the SW (220 degrees) at 10 MPH (9 knots; 4.6 m/s)
Visibility: 5 miles ( 8 km)
Ceiling: 900 feet AGL
Clouds: broken clouds at 900 feet AGL
overcast cloud deck at 4400 feet AGL
Weather: no significant weather observed at this time

METAR text: DGAA 210700Z 22008KT 8000 BKN007 OVC014 25/24 Q1015 NOSIG
Conditions at: DGAA (ACCRA/KOTOKA INT, GH) observed 0700 UTC 21 August 2019
Temperature: 25.0°C (77°F)
Dewpoint: 24.0°C (75°F) [RH = 94%]
Pressure (altimeter): 29.97 inches Hg (1015.0 mb)
Winds: from the SW (220 degrees) at 9 MPH (8 knots; 4.1 m/s)
Visibility: 5 miles ( 8 km)
Ceiling: 700 feet AGL
Clouds: broken clouds at 700 feet AGL
overcast cloud deck at 1400 feet AGL
Weather: no significant weather observed at this time

METAR text: DGAA 210600Z 22007KT 9999 BKN008 24/24 Q1014 NOSIG
Conditions at: DGAA (ACCRA/KOTOKA INT, GH) observed 0600 UTC 21 August 2019
Temperature: 24.0°C (75°F)
Dewpoint: 24.0°C (75°F) [RH = 100%]
Pressure (altimeter): 29.94 inches Hg (1014.0 mb)
Winds: from the SW (220 degrees) at 8 MPH (7 knots; 3.6 m/s)
Visibility: 6 or more miles (10+ km)
Ceiling: 800 feet AGL
Clouds: broken clouds at 800 feet AGL
Weather: no significant weather observed at this time

METAR text: DGAA 210500Z 22007KT 9999 BKN010 24/24 Q1014 NOSIG
Conditions at: DGAA (ACCRA/KOTOKA INT, GH) observed 0500 UTC 21 August 2019
Temperature: 24.0°C (75°F)
Dewpoint: 24.0°C (75°F) [RH = 100%]
Pressure (altimeter): 29.94 inches Hg (1014.0 mb)
Winds: from the SW (220 degrees) at 8 MPH (7 knots; 3.6 m/s)
Visibility: 6 or more miles (10+ km)
Ceiling: 1000 feet AGL
Clouds: broken clouds at 1000 feet AGL
Weather: no significant weather observed at this time

METAR text: DGAA 210400Z 24006KT 9999 FEW012 24/24 Q1014 NOSIG
Conditions at: DGAA (ACCRA/KOTOKA INT, GH) observed 0400 UTC 21 August 2019
Temperature: 24.0°C (75°F)
Dewpoint: 24.0°C (75°F) [RH = 100%]
Pressure (altimeter): 29.94 inches Hg (1014.0 mb)
Winds: from the WSW (240 degrees) at 7 MPH (6 knots; 3.1 m/s)
Visibility: 6 or more miles (10+ km)
Ceiling: at least 12,000 feet AGL
Clouds: few clouds at 1200 feet AGL
Weather: no significant weather observed at this time

METAR text: DGAA 210300Z 24006KT 9999 BKN017 24/23 Q1014 NOSIG
Conditions at: DGAA (ACCRA/KOTOKA INT, GH) observed 0300 UTC 21 August 2019
Temperature: 24.0°C (75°F)
Dewpoint: 23.0°C (73°F) [RH = 94%]
Pressure (altimeter): 29.94 inches Hg (1014.0 mb)
Winds: from the WSW (240 degrees) at 7 MPH (6 knots; 3.1 m/s)
Visibility: 6 or more miles (10+ km)
Ceiling: 1700 feet AGL
Clouds: broken clouds at 1700 feet AGL
Weather: no significant weather observed at this time

METAR text: DGAA 210200Z 23011KT 8000 -RA BKN008 BKN034 24/23 Q1014 NOSIG
Conditions at: DGAA (ACCRA/KOTOKA INT, GH) observed 0200 UTC 21 August 2019
Temperature: 24.0°C (75°F)
Dewpoint: 23.0°C (73°F) [RH = 94%]
Pressure (altimeter): 29.94 inches Hg (1014.0 mb)
Winds: from the SW (230 degrees) at 13 MPH (11 knots; 5.7 m/s)
Visibility: 5 miles ( 8 km)
Ceiling: 800 feet AGL
Clouds: broken clouds at 800 feet AGL
broken clouds at 3400 feet AGL
Weather: -RA  (light rain)

METAR text: DGAA 210100Z 24006KT 9999 BKN012 24/24 Q1015 NOSIG
Conditions at: DGAA (ACCRA/KOTOKA INT, GH) observed 0100 UTC 21 August 2019
Temperature: 24.0°C (75°F)
Dewpoint: 24.0°C (75°F) [RH = 100%]
Pressure (altimeter): 29.97 inches Hg (1015.0 mb)
Winds: from the WSW (240 degrees) at 7 MPH (6 knots; 3.1 m/s)
Visibility: 6 or more miles (10+ km)
Ceiling: 1200 feet AGL
Clouds: broken clouds at 1200 feet AGL
Weather: no significant weather observed at this time

METAR text: DGAA 210000Z 24005KT 9999 FEW007 SCT018 24/24 Q1015 NOSIG
Conditions at: DGAA (ACCRA/KOTOKA INT, GH) observed 0000 UTC 21 August 2019
Temperature: 24.0°C (75°F)
Dewpoint: 24.0°C (75°F) [RH = 100%]
Pressure (altimeter): 29.97 inches Hg (1015.0 mb)
Winds: from the WSW (240 degrees) at 6 MPH (5 knots; 2.6 m/s)
Visibility: 6 or more miles (10+ km)
Ceiling: at least 12,000 feet AGL
Clouds: few clouds at 700 feet AGL
scattered clouds at 1800 feet AGL
Weather: no significant weather observed at this time

METAR text: DGAA 202300Z 21008KT 9999 SCT006 BKN014 OVC033 24/23 Q1015 NOSIG
Conditions at: DGAA (ACCRA/KOTOKA INT, GH) observed 2300 UTC 20 August 2019
Temperature: 24.0°C (75°F)
Dewpoint: 23.0°C (73°F) [RH = 94%]
Pressure (altimeter): 29.97 inches Hg (1015.0 mb)
Winds: from the SSW (210 degrees) at 9 MPH (8 knots; 4.1 m/s)
Visibility: 6 or more miles (10+ km)
Ceiling: 1400 feet AGL
Clouds: scattered clouds at 600 feet AGL
broken clouds at 1400 feet AGL
overcast cloud deck at 3300 feet AGL
Weather: no significant weather observed at this time

METAR text: DGAA 202200Z 21013KT 9999 BKN007 BKN039 24/23 Q1015 NOSIG
Conditions at: DGAA (ACCRA/KOTOKA INT, GH) observed 2200 UTC 20 August 2019
Temperature: 24.0°C (75°F)
Dewpoint: 23.0°C (73°F) [RH = 94%]
Pressure (altimeter): 29.97 inches Hg (1015.0 mb)
Winds: from the SSW (210 degrees) at 15 MPH (13 knots; 6.7 m/s)
Visibility: 6 or more miles (10+ km)
Ceiling: 700 feet AGL
Clouds: broken clouds at 700 feet AGL
broken clouds at 3900 feet AGL
Weather: no significant weather observed at this time

METAR text: DGAA 202100Z 22012KT 6000 -RA BKN009 OVC018 25/24 Q1014 NOSIG
Conditions at: DGAA (ACCRA/KOTOKA INT, GH) observed 2100 UTC 20 August 2019
Temperature: 25.0°C (77°F)
Dewpoint: 24.0°C (75°F) [RH = 94%]
Pressure (altimeter): 29.94 inches Hg (1014.0 mb)
Winds: from the SW (220 degrees) at 14 MPH (12 knots; 6.2 m/s)
Visibility: 4 miles ( 6 km)
Ceiling: 900 feet AGL
Clouds: broken clouds at 900 feet AGL
overcast cloud deck at 1800 feet AGL
Weather: -RA  (light rain)

METAR text: DGAA 202000Z 22012KT 9999 BKN010 BKN038 26/24 Q1014 NOSIG
Conditions at: DGAA (ACCRA/KOTOKA INT, GH) observed 2000 UTC 20 August 2019
Temperature: 26.0°C (79°F)
Dewpoint: 24.0°C (75°F) [RH = 89%]
Pressure (altimeter): 29.94 inches Hg (1014.0 mb)
Winds: from the SW (220 degrees) at 14 MPH (12 knots; 6.2 m/s)
Visibility: 6 or more miles (10+ km)
Ceiling: 1000 feet AGL
Clouds: broken clouds at 1000 feet AGL
broken clouds at 3800 feet AGL
Weather: no significant weather observed at this time

METAR text: DGAA 201900Z 21015KT 9999 SCT011 SCT040 BKN048 25/24 Q1013 NOSIG
Conditions at: DGAA (ACCRA/KOTOKA INT, GH) observed 1900 UTC 20 August 2019
Temperature: 25.0°C (77°F)
Dewpoint: 24.0°C (75°F) [RH = 94%]
Pressure (altimeter): 29.91 inches Hg (1013.0 mb)
Winds: from the SSW (210 degrees) at 17 MPH (15 knots; 7.7 m/s)
Visibility: 6 or more miles (10+ km)
Ceiling: 4800 feet AGL
Clouds: scattered clouds at 1100 feet AGL
scattered clouds at 4000 feet AGL
broken clouds at 4800 feet AGL
Weather: no significant weather observed at this time

METAR text: DGAA 201700Z 21015KT 9999 FEW017 BNK042 26/23 Q1012 NOSIG
Conditions at: DGAA (ACCRA/KOTOKA INT, GH) observed 1700 UTC 20 August 2019
Temperature: 26.0°C (79°F)
Dewpoint: 23.0°C (73°F) [RH = 84%]
Pressure (altimeter): 29.88 inches Hg (1012.0 mb)
Winds: from the SSW (210 degrees) at 17 MPH (15 knots; 7.7 m/s)
Visibility: 6 or more miles (10+ km)
Ceiling: at least 12,000 feet AGL
Clouds: few clouds at 1700 feet AGL
Weather: no significant weather observed at this time

METAR text: DGAA 201600Z 22016KT 9999 SCT018 27/23 Q1012 NOSIG
Conditions at: DGAA (ACCRA/KOTOKA INT, GH) observed 1600 UTC 20 August 2019
Temperature: 27.0°C (81°F)
Dewpoint: 23.0°C (73°F) [RH = 79%]
Pressure (altimeter): 29.88 inches Hg (1012.0 mb)
Winds: from the SW (220 degrees) at 18 MPH (16 knots; 8.2 m/s)
Visibility: 6 or more miles (10+ km)
Ceiling: at least 12,000 feet AGL
Clouds: scattered clouds at 1800 feet AGL
Weather: no significant weather observed at this time

METAR text: DGAA 201500Z 21015KT 9999 SCT018 27/23 Q1012 NOSIG
Conditions at: DGAA (ACCRA/KOTOKA INT, GH) observed 1500 UTC 20 August 2019
Temperature: 27.0°C (81°F)
Dewpoint: 23.0°C (73°F) [RH = 79%]
Pressure (altimeter): 29.88 inches Hg (1012.0 mb)
Winds: from the SSW (210 degrees) at 17 MPH (15 knots; 7.7 m/s)
Visibility: 6 or more miles (10+ km)
Ceiling: at least 12,000 feet AGL
Clouds: scattered clouds at 1800 feet AGL
Weather: no significant weather observed at this time

METAR text: DGAA 201400Z 21017KT 9999 BKN021 BKN031 27/22 Q1013 NOSIG
Conditions at: DGAA (ACCRA/KOTOKA INT, GH) observed 1400 UTC 20 August 2019
Temperature: 27.0°C (81°F)
Dewpoint: 22.0°C (72°F) [RH = 74%]
Pressure (altimeter): 29.91 inches Hg (1013.0 mb)
Winds: from the SSW (210 degrees) at 20 MPH (17 knots; 8.7 m/s)
Visibility: 6 or more miles (10+ km)
Ceiling: 2100 feet AGL
Clouds: broken clouds at 2100 feet AGL
broken clouds at 3100 feet AGL
Weather: no significant weather observed at this time

METAR text: DGAA 201300Z 21016KT 9999 SCT022 29/22 Q1013 NOSIG
Conditions at: DGAA (ACCRA/KOTOKA INT, GH) observed 1300 UTC 20 August 2019
Temperature: 29.0°C (84°F)
Dewpoint: 22.0°C (72°F) [RH = 66%]
Pressure (altimeter): 29.91 inches Hg (1013.0 mb)
Winds: from the SSW (210 degrees) at 18 MPH (16 knots; 8.2 m/s)
Visibility: 6 or more miles (10+ km)
Ceiling: at least 12,000 feet AGL
Clouds: scattered clouds at 2200 feet AGL
Weather: no significant weather observed at this time

METAR text: DGAA 201200Z 20017KT 9999 SCT021 28/23 Q1014 NOSIG
Conditions at: DGAA (ACCRA/KOTOKA INT, GH) observed 1200 UTC 20 August 2019
Temperature: 28.0°C (82°F)
Dewpoint: 23.0°C (73°F) [RH = 74%]
Pressure (altimeter): 29.94 inches Hg (1014.0 mb)
Winds: from the SSW (200 degrees) at 20 MPH (17 knots; 8.7 m/s)
Visibility: 6 or more miles (10+ km)
Ceiling: at least 12,000 feet AGL
Clouds: scattered clouds at 2100 feet AGL
Weather: no significant weather observed at this time

METAR text: DGAA 201100Z 21015KT 9999 SCT012 28/22 Q1015 NOSIG
Conditions at: DGAA (ACCRA/KOTOKA INT, GH) observed 1100 UTC 20 August 2019
Temperature: 28.0°C (82°F)
Dewpoint: 22.0°C (72°F) [RH = 70%]
Pressure (altimeter): 29.97 inches Hg (1015.0 mb)
Winds: from the SSW (210 degrees) at 17 MPH (15 knots; 7.7 m/s)
Visibility: 6 or more miles (10+ km)
Ceiling: at least 12,000 feet AGL
Clouds: scattered clouds at 1200 feet AGL
Weather: no significant weather observed at this time

METAR text: DGAA 201000Z 22014KT 9999 BKN018 BKN022 28/23 Q1015 NOSIG
Conditions at: DGAA (ACCRA/KOTOKA INT, GH) observed 1000 UTC 20 August 2019
Temperature: 28.0°C (82°F)
Dewpoint: 23.0°C (73°F) [RH = 74%]
Pressure (altimeter): 29.97 inches Hg (1015.0 mb)
Winds: from the SW (220 degrees) at 16 MPH (14 knots; 7.2 m/s)
Visibility: 6 or more miles (10+ km)
Ceiling: 1800 feet AGL
Clouds: broken clouds at 1800 feet AGL
broken clouds at 2200 feet AGL
Weather: no significant weather observed at this time

METAR text: DGAA 200900Z 22012KT 9999 FEW014 BKN023 26/23 Q1015 NOSIG
Conditions at: DGAA (ACCRA/KOTOKA INT, GH) observed 0900 UTC 20 August 2019
Temperature: 26.0°C (79°F)
Dewpoint: 23.0°C (73°F) [RH = 84%]
Pressure (altimeter): 29.97 inches Hg (1015.0 mb)
Winds: from the SW (220 degrees) at 14 MPH (12 knots; 6.2 m/s)
Visibility: 6 or more miles (10+ km)
Ceiling: 2300 feet AGL
Clouds: few clouds at 1400 feet AGL
broken clouds at 2300 feet AGL
Weather: no significant weather observed at this time

METAR text: DGAA 200800Z 24011KT 9999 BKN012 25/23 Q1014 NOSIG
Conditions at: DGAA (ACCRA/KOTOKA INT, GH) observed 0800 UTC 20 August 2019
Temperature: 25.0°C (77°F)
Dewpoint: 23.0°C (73°F) [RH = 89%]
Pressure (altimeter): 29.94 inches Hg (1014.0 mb)
Winds: from the WSW (240 degrees) at 13 MPH (11 knots; 5.7 m/s)
Visibility: 6 or more miles (10+ km)
Ceiling: 1200 feet AGL
Clouds: broken clouds at 1200 feet AGL
Weather: no significant weather observed at this time

METAR text: DGAA 200700Z 24009KT 9999 BKN013 25/23 Q1014 NOSIG
Conditions at: DGAA (ACCRA/KOTOKA INT, GH) observed 0700 UTC 20 August 2019
Temperature: 25.0°C (77°F)
Dewpoint: 23.0°C (73°F) [RH = 89%]
Pressure (altimeter): 29.94 inches Hg (1014.0 mb)
Winds: from the WSW (240 degrees) at 10 MPH (9 knots; 4.6 m/s)
Visibility: 6 or more miles (10+ km)
Ceiling: 1300 feet AGL
Clouds: broken clouds at 1300 feet AGL
Weather: no significant weather observed at this time

METAR text: DGAA 200600Z 24008KT 9999 OVC012 25/23 Q1013 NOSIG
Conditions at: DGAA (ACCRA/KOTOKA INT, GH) observed 0600 UTC 20 August 2019
Temperature: 25.0°C (77°F)
Dewpoint: 23.0°C (73°F) [RH = 89%]
Pressure (altimeter): 29.91 inches Hg (1013.0 mb)
Winds: from the WSW (240 degrees) at 9 MPH (8 knots; 4.1 m/s)
Visibility: 6 or more miles (10+ km)
Ceiling: 1200 feet AGL
Clouds: overcast cloud deck at 1200 feet AGL
Weather: no significant weather observed at this time

METAR text: DGAA 200500Z 23009KT 9999 BKN012 25/23 Q1012 NOSIG
Conditions at: DGAA (ACCRA/KOTOKA INT, GH) observed 0500 UTC 20 August 2019
Temperature: 25.0°C (77°F)
Dewpoint: 23.0°C (73°F) [RH = 89%]
Pressure (altimeter): 29.88 inches Hg (1012.0 mb)
Winds: from the SW (230 degrees) at 10 MPH (9 knots; 4.6 m/s)
Visibility: 6 or more miles (10+ km)
Ceiling: 1200 feet AGL
Clouds: broken clouds at 1200 feet AGL
Weather: no significant weather observed at this time

METAR text: DGAA 200400Z 23010KT 9999 SCT013 SCT017 OVC020 25/22 Q1012 NOSIG
Conditions at: DGAA (ACCRA/KOTOKA INT, GH) observed 0400 UTC 20 August 2019
Temperature: 25.0°C (77°F)
Dewpoint: 22.0°C (72°F) [RH = 83%]
Pressure (altimeter): 29.88 inches Hg (1012.0 mb)
Winds: from the SW (230 degrees) at 12 MPH (10 knots; 5.1 m/s)
Visibility: 6 or more miles (10+ km)
Ceiling: 2000 feet AGL
Clouds: scattered clouds at 1300 feet AGL
scattered clouds at 1700 feet AGL
overcast cloud deck at 2000 feet AGL
Weather: no significant weather observed at this time

METAR text: DGAA 200300Z 25009KT 9999 FEW013 OVC016 25/22 Q1012 NOSIG
Conditions at: DGAA (ACCRA/KOTOKA INT, GH) observed 0300 UTC 20 August 2019
Temperature: 25.0°C (77°F)
Dewpoint: 22.0°C (72°F) [RH = 83%]
Pressure (altimeter): 29.88 inches Hg (1012.0 mb)
Winds: from the WSW (250 degrees) at 10 MPH (9 knots; 4.6 m/s)
Visibility: 6 or more miles (10+ km)
Ceiling: 1600 feet AGL
Clouds: few clouds at 1300 feet AGL
overcast cloud deck at 1600 feet AGL
Weather: no significant weather observed at this time

METAR text: DGAA 200200Z 23011KT 9999 BKN013 OVC017 25/23 Q1012 NOSIG
Conditions at: DGAA (ACCRA/KOTOKA INT, GH) observed 0200 UTC 20 August 2019
Temperature: 25.0°C (77°F)
Dewpoint: 23.0°C (73°F) [RH = 89%]
Pressure (altimeter): 29.88 inches Hg (1012.0 mb)
Winds: from the SW (230 degrees) at 13 MPH (11 knots; 5.7 m/s)
Visibility: 6 or more miles (10+ km)
Ceiling: 1300 feet AGL
Clouds: broken clouds at 1300 feet AGL
overcast cloud deck at 1700 feet AGL
Weather: no significant weather observed at this time

Forecast for: DGAA (ACCRA/KOTOKA INT, GH)
Text: TAF DGAA 211100Z 2112/2218 20012KT 9999 SCT015 BKN030
Forecast period: 1200 UTC 21 August 2019 to 1800 UTC 22 August 2019
Forecast type: FROM: standard forecast or significant change
Winds: from the SSW (200 degrees) at 14 MPH (12 knots; 6.2 m/s)
Visibility: 6 or more miles 10+ km)
Ceiling: 3000 feet AGL
Clouds: scattered clouds at 1500 feet AGL
broken clouds at 3000 feet AGL
Weather: no significant weather forecast for this period
Text: PROB30
Forecast period: 1800 to 2300 UTC 21 August 2019
Forecast type: TEMPORARY: The following changes expected for less than half the time period
Visibility: 4 miles (6 km)
Ceiling: 1000 feet AGL
Clouds: broken clouds at 1000 feet AGL
overcast cloud deck at 3200 feet AGL
Weather: -RA  (light rain)
Text: TEMPO 2118/2123 6000 -RA BKN010 OVC032
Forecast period: 0600 to 0900 UTC 22 August 2019
Forecast type: PROBABLE: 40 percent likelihood of the following during this time
Visibility: 4 miles (7 km)
Ceiling: 1000 feet AGL
Clouds: broken clouds at 1000 feet AGL
Weather: no significant weather forecast for this period